createdAt,value
2019-04-04T00:01:56.614Z,7.13
2019-04-04T00:04:23.850Z,6.67
2019-04-04T00:06:51.121Z,5.40
2019-04-04T00:09:18.366Z,6.83
2019-04-04T00:11:45.629Z,7.87
2019-04-04T00:14:13.497Z,7.53
2019-04-04T00:16:40.981Z,4.83
2019-04-04T00:19:08.242Z,7.40
2019-04-04T00:21:35.496Z,7.50
2019-04-04T00:24:02.990Z,7.03
2019-04-04T00:26:30.257Z,7.67
2019-04-04T00:28:57.494Z,6.13
2019-04-04T00:31:24.765Z,8.77
2019-04-04T00:33:52.021Z,8.20
2019-04-04T00:36:19.345Z,10.03
2019-04-04T00:38:46.667Z,8.40
2019-04-04T00:41:13.907Z,8.00
2019-04-04T00:43:41.177Z,9.70
2019-04-04T00:46:08.418Z,8.43
2019-04-04T00:48:35.683Z,9.10
2019-04-04T00:51:03.097Z,14.33
2019-04-04T00:53:30.374Z,10.67
2019-04-04T00:55:57.622Z,10.03
2019-04-04T00:58:24.890Z,9.23
2019-04-04T01:00:52.950Z,9.60
2019-04-04T01:03:21.125Z,11.40
2019-04-04T01:05:48.685Z,10.00
2019-04-04T01:08:16.278Z,12.27
2019-04-04T01:10:43.529Z,10.63
2019-04-04T01:13:10.796Z,11.80
2019-04-04T01:15:38.042Z,11.10
2019-04-04T01:18:06.164Z,12.80
2019-04-04T01:20:34.010Z,14.47
2019-04-04T01:23:01.282Z,12.27
2019-04-04T01:25:31.943Z,11.00
2019-04-04T01:27:57.524Z,13.73
2019-04-04T01:30:24.777Z,13.03
2019-04-04T01:32:52.029Z,13.83
2019-04-04T01:35:22.512Z,12.07
2019-04-04T01:37:48.284Z,12.30
2019-04-04T01:40:15.630Z,11.47
2019-04-04T01:42:42.874Z,10.50
2019-04-04T01:45:12.691Z,14.50
2019-04-04T01:47:39.354Z,12.60
2019-04-04T01:50:06.691Z,11.83
2019-04-04T01:52:33.942Z,11.20
2019-04-04T01:55:03.422Z,13.23
2019-04-04T01:57:30.182Z,12.03
2019-04-04T01:59:57.764Z,11.60
2019-04-04T02:02:25.334Z,13.70
2019-04-04T02:04:55.554Z,10.80
2019-04-04T02:07:21.570Z,10.57
2019-04-04T02:09:48.850Z,12.63
2019-04-04T02:12:16.094Z,12.03
2019-04-04T02:14:43.666Z,13.30
2019-04-04T02:17:10.998Z,12.30
2019-04-04T02:19:38.270Z,12.10
2019-04-04T02:22:05.589Z,15.00
2019-04-04T02:24:32.872Z,13.77
2019-04-04T02:27:00.124Z,15.53
2019-04-04T02:29:27.655Z,13.00
2019-04-04T02:31:56.547Z,13.37
2019-04-04T02:34:23.814Z,13.30
2019-04-04T02:36:51.066Z,14.13
2019-04-04T02:39:20.199Z,11.50
2019-04-04T02:41:48.504Z,14.87
2019-04-04T02:44:16.598Z,12.40
2019-04-04T02:46:45.505Z,12.73
2019-04-04T02:49:12.839Z,13.70
2019-04-04T02:51:41.320Z,14.27
2019-04-04T02:54:08.829Z,12.93
2019-04-04T02:56:36.377Z,14.60
2019-04-04T02:59:04.013Z,12.93
2019-04-04T03:01:32.232Z,15.53
2019-04-04T03:04:00.251Z,14.43
2019-04-04T03:06:27.499Z,13.90
2019-04-04T03:08:54.793Z,13.03
2019-04-04T03:11:22.947Z,12.40
2019-04-04T03:13:50.314Z,15.30
2019-04-04T03:16:21.139Z,13.30
2019-04-04T03:18:46.678Z,12.50
2019-04-04T03:21:13.959Z,11.40
2019-04-04T03:23:41.523Z,12.90
2019-04-04T03:26:08.799Z,11.97
2019-04-04T03:28:36.054Z,12.53
2019-04-04T03:31:04.011Z,13.67
2019-04-04T03:33:32.641Z,16.23
2019-04-04T03:36:01.181Z,16.13
2019-04-04T03:38:28.593Z,13.97
2019-04-04T03:40:57.880Z,16.17
2019-04-04T03:43:24.842Z,14.40
2019-04-04T03:45:52.111Z,14.50
2019-04-04T03:48:19.431Z,15.50
2019-04-04T03:50:46.699Z,16.17
2019-04-04T03:53:16.663Z,13.40
2019-04-04T03:55:42.943Z,14.00
2019-04-04T03:58:10.196Z,11.97
2019-04-04T04:00:40.323Z,14.37
2019-04-04T04:03:06.445Z,16.90
2019-04-04T04:05:35.735Z,12.73
2019-04-04T04:08:02.738Z,15.13
2019-04-04T04:10:33.255Z,13.57
2019-04-04T04:12:59.016Z,13.10
2019-04-04T04:15:29.197Z,12.27
2019-04-04T04:17:55.243Z,12.50
2019-04-04T04:20:22.503Z,13.27
2019-04-04T04:22:50.948Z,14.63
2019-04-04T04:25:19.176Z,14.90
2019-04-04T04:27:48.450Z,16.50
2019-04-04T04:30:15.483Z,13.20
2019-04-04T04:32:42.754Z,17.20
2019-04-04T04:35:10.177Z,13.40
2019-04-04T04:37:37.453Z,15.47
2019-04-04T04:40:05.274Z,15.80
2019-04-04T04:42:32.556Z,14.73
2019-04-04T04:44:59.805Z,12.40
2019-04-04T04:47:27.348Z,18.47
2019-04-04T04:49:55.378Z,14.60
2019-04-04T04:52:23.017Z,16.00
2019-04-04T04:54:52.338Z,16.13
2019-04-04T04:57:29.253Z,13.13
2019-04-04T04:59:48.238Z,16.10
2019-04-04T05:02:15.489Z,16.73
2019-04-04T05:04:42.757Z,15.40
2019-04-04T05:07:10.022Z,17.80
2019-04-04T05:09:37.285Z,16.67
2019-04-04T05:12:04.808Z,15.83
2019-04-04T05:14:32.079Z,19.20
2019-04-04T05:16:59.337Z,17.00
2019-04-04T05:19:26.601Z,15.57
2019-04-04T05:21:53.850Z,18.07
2019-04-04T05:24:21.379Z,14.60
2019-04-04T05:26:48.637Z,16.90
2019-04-04T05:29:15.897Z,16.00
2019-04-04T05:31:43.156Z,17.20
2019-04-04T05:34:10.687Z,20.93
2019-04-04T05:36:37.940Z,17.20
2019-04-04T05:39:06.481Z,18.30
2019-04-04T05:41:33.730Z,16.37
2019-04-04T05:44:01.076Z,24.43
2019-04-04T05:46:28.326Z,19.73
2019-04-04T05:48:55.604Z,21.77
2019-04-04T05:51:22.918Z,18.83
2019-04-04T05:53:50.212Z,16.43
2019-04-04T05:56:17.522Z,17.83
2019-04-04T05:58:44.795Z,17.30
2019-04-04T06:01:16.646Z,21.90
2019-04-04T06:03:46.991Z,16.57
2019-04-04T06:06:12.891Z,16.80
2019-04-04T06:08:43.221Z,18.50
2019-04-04T06:11:09.217Z,14.83
2019-04-04T06:13:36.468Z,14.23
2019-04-04T06:16:04.229Z,15.77
2019-04-04T06:18:32.134Z,15.60
2019-04-04T06:20:59.665Z,15.30
2019-04-04T06:23:27.190Z,15.87
2019-04-04T06:25:54.467Z,13.40
2019-04-04T06:28:21.957Z,18.70
2019-04-04T06:30:49.242Z,15.33
2019-04-04T06:33:16.578Z,12.20
2019-04-04T06:35:47.124Z,14.10
2019-04-04T06:38:12.813Z,11.60
2019-04-04T06:40:40.103Z,13.73
2019-04-04T06:43:10.354Z,14.03
2019-04-04T06:45:36.675Z,11.77
2019-04-04T06:48:03.917Z,9.63
2019-04-04T06:50:31.178Z,10.80
2019-04-04T06:52:58.423Z,11.67
2019-04-04T06:55:28.319Z,11.10
2019-04-04T06:57:55.121Z,9.60
2019-04-04T07:00:22.386Z,9.17
2019-04-04T07:02:49.888Z,9.33
2019-04-04T07:05:17.222Z,10.70
2019-04-04T07:07:44.720Z,7.70
2019-04-04T07:10:12.012Z,8.50
2019-04-04T07:12:39.297Z,8.10
2019-04-04T07:15:11.225Z,7.90
2019-04-04T07:17:40.056Z,9.43
2019-04-04T07:20:06.334Z,8.97
2019-04-04T07:22:33.595Z,10.20
2019-04-04T07:25:01.420Z,8.47
2019-04-04T07:27:30.071Z,7.90
2019-04-04T07:29:57.351Z,8.67
2019-04-04T07:32:24.657Z,7.57
2019-04-04T07:34:52.141Z,9.77
2019-04-04T07:37:21.711Z,7.87
2019-04-04T07:39:50.101Z,6.57
2019-04-04T07:42:17.510Z,8.00
2019-04-04T07:44:44.758Z,6.20
2019-04-04T07:47:12.029Z,5.70
2019-04-04T07:49:40.367Z,6.00
2019-04-04T07:52:07.706Z,7.00
2019-04-04T07:54:38.063Z,6.70
2019-04-04T07:57:04.105Z,6.10
2019-04-04T07:59:31.359Z,6.37
2019-04-04T08:01:58.951Z,5.63
2019-04-04T08:04:26.190Z,4.77
2019-04-04T08:06:53.467Z,4.97
2019-04-04T08:09:20.693Z,4.80
2019-04-04T08:11:47.959Z,4.50
2019-04-04T08:14:15.201Z,4.17
2019-04-04T08:16:42.697Z,3.97
2019-04-04T08:19:09.966Z,4.40
2019-04-04T08:21:37.207Z,4.83
2019-04-04T08:24:04.538Z,4.67
2019-04-04T08:26:31.782Z,3.80
2019-04-04T08:28:59.045Z,4.20
2019-04-04T08:31:26.531Z,3.70
2019-04-04T08:33:53.789Z,4.20
2019-04-04T08:36:21.043Z,4.57
2019-04-04T08:38:48.306Z,3.90
2019-04-04T08:41:15.554Z,4.67
2019-04-04T08:43:43.060Z,3.73
2019-04-04T08:46:10.372Z,4.03
2019-04-04T08:48:37.638Z,4.50
2019-04-04T08:51:05.071Z,4.53
2019-04-04T08:53:39.697Z,2.73
2019-04-04T08:56:01.299Z,3.30
2019-04-04T08:58:28.557Z,3.33
2019-04-04T09:00:55.801Z,3.10
2019-04-04T09:03:23.069Z,3.80
2019-04-04T09:05:50.570Z,2.97
2019-04-04T09:08:17.825Z,2.90
2019-04-04T09:10:45.071Z,3.73
2019-04-04T09:13:12.343Z,3.60
2019-04-04T09:15:39.587Z,2.83
2019-04-04T09:18:06.827Z,2.47
2019-04-04T09:20:34.092Z,2.90
2019-04-04T09:23:01.338Z,3.03
2019-04-04T09:25:28.598Z,3.17
2019-04-04T09:27:55.916Z,3.17
2019-04-04T09:30:23.349Z,3.13
2019-04-04T09:32:50.591Z,2.70
2019-04-04T09:35:17.929Z,3.37
2019-04-04T09:37:45.174Z,2.57
2019-04-04T09:40:12.510Z,2.33
2019-04-04T09:42:39.817Z,3.90
2019-04-04T09:45:09.903Z,2.93
2019-04-04T09:47:37.140Z,2.60
2019-04-04T09:50:08.738Z,3.47
2019-04-04T09:52:36.309Z,2.97
2019-04-04T09:55:05.146Z,2.73
2019-04-04T09:57:32.393Z,3.10
2019-04-04T09:59:59.663Z,3.20
2019-04-04T10:02:26.897Z,3.30
2019-04-04T10:04:54.158Z,3.10
2019-04-04T10:07:21.403Z,3.30
2019-04-04T10:09:48.662Z,2.87
2019-04-04T10:12:15.902Z,3.83
2019-04-04T10:14:43.425Z,3.13
2019-04-04T10:17:10.666Z,3.30
2019-04-04T10:19:37.942Z,4.10
2019-04-04T10:22:05.190Z,3.70
2019-04-04T10:24:32.430Z,3.80
2019-04-04T10:26:59.716Z,3.53
2019-04-04T10:29:27.049Z,3.30
2019-04-04T10:31:54.354Z,3.50
2019-04-04T10:34:21.593Z,3.80
2019-04-04T10:36:49.119Z,3.40
2019-04-04T10:39:28.365Z,3.83
2019-04-04T10:41:45.333Z,3.70
2019-04-04T10:44:12.576Z,3.73
2019-04-04T10:46:39.834Z,3.60
2019-04-04T10:49:08.419Z,4.67
2019-04-04T10:51:36.069Z,4.87
2019-04-04T10:54:03.564Z,4.73
2019-04-04T10:56:30.830Z,4.53
2019-04-04T10:58:58.321Z,5.87
2019-04-04T11:01:25.846Z,5.90
2019-04-04T11:03:53.090Z,5.13
2019-04-04T11:06:20.351Z,5.13
2019-04-04T11:08:47.590Z,5.90
2019-04-04T11:11:14.866Z,5.00
2019-04-04T11:13:42.102Z,7.43
2019-04-04T11:16:09.345Z,5.60
2019-04-04T11:18:36.605Z,5.03
2019-04-04T11:21:03.849Z,4.90
2019-04-04T11:23:31.115Z,4.90
2019-04-04T11:25:58.360Z,4.90
2019-04-04T11:28:25.618Z,5.20
2019-04-04T11:30:52.857Z,4.40
2019-04-04T11:33:20.118Z,4.77
2019-04-04T11:35:47.357Z,7.03
2019-04-04T11:38:14.639Z,4.60
2019-04-04T11:40:41.937Z,3.93
2019-04-04T11:43:09.201Z,4.17
2019-04-04T11:45:36.510Z,4.13
2019-04-04T11:48:04.114Z,4.13
2019-04-04T11:50:31.425Z,4.03
2019-04-04T11:52:58.689Z,4.70
2019-04-04T11:55:25.940Z,3.63
2019-04-04T11:57:53.197Z,5.20
2019-04-04T12:00:22.081Z,3.43
2019-04-04T12:02:49.344Z,3.67
2019-04-04T12:05:16.842Z,2.90
2019-04-04T12:07:44.210Z,3.57
2019-04-04T12:10:12.057Z,3.53
2019-04-04T12:12:39.297Z,3.60
2019-04-04T12:15:07.195Z,3.70
2019-04-04T12:17:34.434Z,3.67
2019-04-04T12:20:01.927Z,3.33
2019-04-04T12:22:29.466Z,4.43
2019-04-04T12:24:56.743Z,3.73
2019-04-04T12:27:23.980Z,3.83
2019-04-04T12:29:51.269Z,3.60
2019-04-04T12:32:18.514Z,4.00
2019-04-04T12:34:45.778Z,3.90
2019-04-04T12:37:13.192Z,5.40
2019-04-04T12:39:40.542Z,4.07
2019-04-04T12:42:08.033Z,5.10
2019-04-04T12:44:35.306Z,4.43
2019-04-04T12:47:02.545Z,5.30
2019-04-04T12:49:29.807Z,5.40
2019-04-04T12:51:57.053Z,4.83
2019-04-04T12:54:24.309Z,4.43
2019-04-04T12:56:51.560Z,4.83
2019-04-04T12:59:18.821Z,4.53
2019-04-04T13:01:47.309Z,6.00
2019-04-04T13:04:15.729Z,5.30
2019-04-04T13:06:43.252Z,6.30
2019-04-04T13:09:10.499Z,5.43
2019-04-04T13:11:37.766Z,5.20
2019-04-04T13:14:05.010Z,4.73
2019-04-04T13:16:32.286Z,4.77
2019-04-04T13:18:59.602Z,5.10
2019-04-04T13:21:27.117Z,5.30
2019-04-04T13:23:54.366Z,7.90
2019-04-04T13:26:21.625Z,5.90
2019-04-04T13:28:49.122Z,7.13
2019-04-04T13:31:16.381Z,5.43
2019-04-04T13:33:43.625Z,8.90
2019-04-04T13:36:10.886Z,5.90
2019-04-04T13:38:38.130Z,5.80
2019-04-04T13:41:05.650Z,4.93
2019-04-04T13:43:32.970Z,5.07
2019-04-04T13:46:00.253Z,4.47
2019-04-04T13:48:27.503Z,5.97
2019-04-04T13:50:54.774Z,6.00
2019-04-04T13:53:25.053Z,6.10
2019-04-04T13:55:51.074Z,5.57
2019-04-04T13:58:22.020Z,3.73
2019-04-04T14:00:47.293Z,3.60
2019-04-04T14:03:14.549Z,5.40
2019-04-04T14:05:41.812Z,4.20
2019-04-04T14:08:09.078Z,3.73
2019-04-04T14:10:36.318Z,3.50
2019-04-04T14:13:03.664Z,3.63
2019-04-04T14:15:30.970Z,3.77
2019-04-04T14:17:58.235Z,3.30
2019-04-04T14:20:25.481Z,3.30
2019-04-04T14:22:53.067Z,3.70
2019-04-04T14:25:20.547Z,3.40
2019-04-04T14:27:48.055Z,2.73
2019-04-04T14:30:15.549Z,3.37
2019-04-04T14:32:42.819Z,3.13
2019-04-04T14:35:10.578Z,3.50
2019-04-04T14:37:37.841Z,3.10
2019-04-04T14:40:05.965Z,3.00
2019-04-04T14:42:33.246Z,3.50
2019-04-04T14:45:02.291Z,4.40
2019-04-04T14:47:29.521Z,3.60
2019-04-04T14:49:56.757Z,3.30
2019-04-04T14:52:24.379Z,3.80
2019-04-04T14:54:52.493Z,3.47
2019-04-04T14:57:19.746Z,4.13
2019-04-04T14:59:47.060Z,4.00
2019-04-04T15:02:14.298Z,4.83
2019-04-04T15:04:41.594Z,4.10
2019-04-04T15:07:08.858Z,3.50
2019-04-04T15:09:36.173Z,3.77
2019-04-04T15:12:03.423Z,3.93
2019-04-04T15:14:30.678Z,2.90
2019-04-04T15:16:57.977Z,2.87
2019-04-04T15:19:25.275Z,3.27
2019-04-04T15:21:52.558Z,2.83
2019-04-04T15:24:19.890Z,3.50
2019-04-04T15:26:47.134Z,3.37
2019-04-04T15:29:14.487Z,5.90
2019-04-04T15:31:41.801Z,2.70
2019-04-04T15:34:09.068Z,3.63
2019-04-04T15:36:36.309Z,3.53
2019-04-04T15:39:05.313Z,3.30
2019-04-04T15:41:37.151Z,3.10
2019-04-04T15:44:01.554Z,2.83
2019-04-04T15:46:28.837Z,4.03
2019-04-04T15:48:56.103Z,3.40
2019-04-04T15:51:23.384Z,3.87
2019-04-04T15:53:50.648Z,3.97
2019-04-04T15:56:17.943Z,3.23
2019-04-04T15:58:45.220Z,3.90
2019-04-04T16:01:12.858Z,3.73
2019-04-04T16:03:40.186Z,2.80
2019-04-04T16:06:07.730Z,3.73
2019-04-04T16:08:35.012Z,3.20
2019-04-04T16:11:02.524Z,4.23
2019-04-04T16:13:29.806Z,3.50
2019-04-04T16:15:57.131Z,3.53
2019-04-04T16:18:24.623Z,3.80
2019-04-04T16:20:51.917Z,3.27
2019-04-04T16:23:19.289Z,3.20
2019-04-04T16:25:46.861Z,4.40
2019-04-04T16:28:14.116Z,3.90
2019-04-04T16:30:41.386Z,3.43
2019-04-04T16:33:08.660Z,5.20
2019-04-04T16:35:36.177Z,4.40
2019-04-04T16:38:03.425Z,3.27
2019-04-04T16:40:30.688Z,3.80
2019-04-04T16:42:57.930Z,4.03
2019-04-04T16:45:25.190Z,3.63
2019-04-04T16:47:53.008Z,4.20
2019-04-04T16:50:21.026Z,3.70
2019-04-04T16:52:48.379Z,3.33
2019-04-04T16:55:15.731Z,2.63
2019-04-04T16:57:43.740Z,3.57
2019-04-04T17:00:12.646Z,3.03
2019-04-04T17:02:39.871Z,2.57
2019-04-04T17:05:07.330Z,2.57
2019-04-04T17:07:34.664Z,2.40
2019-04-04T17:10:01.973Z,2.50
2019-04-04T17:12:29.230Z,2.60
2019-04-04T17:14:56.475Z,2.60
2019-04-04T17:17:23.736Z,2.40
2019-04-04T17:19:50.979Z,2.80
2019-04-04T17:22:18.261Z,2.10
2019-04-04T17:24:45.505Z,2.70
2019-04-04T17:27:12.774Z,2.80
2019-04-04T17:29:40.114Z,2.90
2019-04-04T17:32:07.513Z,2.63
2019-04-04T17:34:35.269Z,2.77
2019-04-04T17:37:02.531Z,3.40
2019-04-04T17:39:30.001Z,5.20
2019-04-04T17:41:57.420Z,4.13
2019-04-04T17:44:25.039Z,4.40
2019-04-04T17:46:52.720Z,3.23
2019-04-04T17:49:20.744Z,3.90
2019-04-04T17:51:49.065Z,5.90
2019-04-04T17:54:17.546Z,3.23
2019-04-04T17:56:44.793Z,3.47
2019-04-04T17:59:12.095Z,3.20
2019-04-04T18:01:39.380Z,3.53
2019-04-04T18:04:06.632Z,3.80
2019-04-04T18:06:33.879Z,4.67
2019-04-04T18:09:01.147Z,4.07
2019-04-04T18:11:28.950Z,4.17
2019-04-04T18:13:56.846Z,5.27
2019-04-04T18:16:25.063Z,4.23
2019-04-04T18:18:53.067Z,8.20
2019-04-04T18:21:21.317Z,6.63
2019-04-04T18:23:49.574Z,5.13
2019-04-04T18:26:17.062Z,5.83
2019-04-04T18:28:44.657Z,4.67
2019-04-04T18:31:11.949Z,4.93
2019-04-04T18:33:39.199Z,5.37
2019-04-04T18:36:06.849Z,6.55
2019-04-04T18:38:34.434Z,6.00
2019-04-04T18:41:01.950Z,5.23
2019-04-04T18:43:29.514Z,6.00
2019-04-04T18:45:56.804Z,6.83
2019-04-04T18:48:24.114Z,6.37
2019-04-04T18:50:53.154Z,6.40
2019-04-04T18:53:20.421Z,8.10
2019-04-04T18:55:47.964Z,5.90
2019-04-04T18:58:15.503Z,7.37
2019-04-04T19:00:43.087Z,7.37
2019-04-04T19:03:10.454Z,7.13
2019-04-04T19:05:38.001Z,7.90
2019-04-04T19:08:05.366Z,7.13
2019-04-04T19:10:32.653Z,7.87
2019-04-04T19:13:05.555Z,8.00
2019-04-04T19:15:28.995Z,8.33
2019-04-04T19:17:56.542Z,8.30
2019-04-04T19:20:23.795Z,9.00
2019-04-04T19:22:51.399Z,10.03
2019-04-04T19:25:19.856Z,9.10
2019-04-04T19:27:47.244Z,8.67
2019-04-04T19:30:15.031Z,8.53
2019-04-04T19:32:42.293Z,8.83
2019-04-04T19:35:09.623Z,9.47
2019-04-04T19:37:37.204Z,9.10
2019-04-04T19:40:05.135Z,9.33
2019-04-04T19:42:32.384Z,10.40
2019-04-04T19:44:59.647Z,9.03
2019-04-04T19:47:27.345Z,9.23
2019-04-04T19:49:58.768Z,10.20
2019-04-04T19:52:26.096Z,10.63
2019-04-04T19:54:53.427Z,11.10
2019-04-04T19:57:20.957Z,11.60
2019-04-04T19:59:48.228Z,10.40
2019-04-04T20:02:15.470Z,11.33
2019-04-04T20:04:42.746Z,10.60
2019-04-04T20:07:10.081Z,11.50
2019-04-04T20:09:37.355Z,11.40
2019-04-04T20:12:04.602Z,12.73
2019-04-04T20:14:31.905Z,13.93
2019-04-04T20:16:59.154Z,14.40
2019-04-04T20:19:26.595Z,12.30
2019-04-04T20:21:56.425Z,14.00
2019-04-04T20:24:23.091Z,13.20
2019-04-04T20:26:50.421Z,17.67
2019-04-04T20:29:17.692Z,15.63
2019-04-04T20:31:44.943Z,14.90
2019-04-04T20:34:12.289Z,14.37
2019-04-04T20:36:39.546Z,17.60
2019-04-04T20:39:07.182Z,16.67
2019-04-04T20:41:34.521Z,16.80
2019-04-04T20:44:02.062Z,14.47
2019-04-04T20:46:29.395Z,15.20
2019-04-04T20:48:57.360Z,16.90
2019-04-04T20:51:24.979Z,18.57
2019-04-04T20:53:52.935Z,19.03
2019-04-04T20:56:20.377Z,18.10
2019-04-04T20:58:47.988Z,16.97
2019-04-04T21:01:15.553Z,20.23
2019-04-04T21:03:42.854Z,17.30
2019-04-04T21:06:10.149Z,18.07
2019-04-04T21:08:37.478Z,18.67
2019-04-04T21:11:04.755Z,16.90
2019-04-04T21:13:32.009Z,15.53
2019-04-04T21:15:59.277Z,17.80
2019-04-04T21:18:26.538Z,20.67
2019-04-04T21:20:53.814Z,19.17
2019-04-04T21:23:21.057Z,21.13
2019-04-04T21:25:48.338Z,20.00
2019-04-04T21:28:15.598Z,19.43
2019-04-04T21:30:42.938Z,17.07
2019-04-04T21:33:10.234Z,21.87
2019-04-04T21:35:37.537Z,16.83
2019-04-04T21:38:04.859Z,18.90
2019-04-04T21:40:32.166Z,23.43
2019-04-04T21:42:59.421Z,19.17
2019-04-04T21:45:26.689Z,17.30
2019-04-04T21:47:54.190Z,18.50
2019-04-04T21:50:21.731Z,17.07
2019-04-04T21:52:48.984Z,16.73
2019-04-04T21:55:16.249Z,17.90
2019-04-04T21:57:43.501Z,22.50
2019-04-04T22:00:12.047Z,21.70
2019-04-04T22:02:39.436Z,20.20
2019-04-04T22:05:07.607Z,17.77
2019-04-04T22:07:35.149Z,17.33
2019-04-04T22:10:02.739Z,17.60
2019-04-04T22:12:30.246Z,17.50
2019-04-04T22:14:57.508Z,20.10
2019-04-04T22:17:24.782Z,17.20
2019-04-04T22:19:52.285Z,16.00
2019-04-04T22:22:19.806Z,18.37
2019-04-04T22:24:47.053Z,16.37
2019-04-04T22:27:14.325Z,16.27
2019-04-04T22:29:41.573Z,18.27
2019-04-04T22:32:08.846Z,21.50
2019-04-04T22:34:36.106Z,21.70
2019-04-04T22:37:03.369Z,18.83
2019-04-04T22:39:30.629Z,19.77
2019-04-04T22:41:57.893Z,18.47
2019-04-04T22:44:34.817Z,19.50
2019-04-04T22:46:54.389Z,20.27
2019-04-04T22:49:21.635Z,19.70
2019-04-04T22:51:48.906Z,18.03
2019-04-04T22:54:16.167Z,18.77
2019-04-04T22:56:43.429Z,17.20
2019-04-04T22:59:10.677Z,19.20
2019-04-04T23:01:38.213Z,20.10
2019-04-04T23:04:05.462Z,18.40
2019-04-04T23:06:32.729Z,20.20
2019-04-04T23:08:59.985Z,17.37
2019-04-04T23:11:27.261Z,20.37
2019-04-04T23:13:54.505Z,18.37
2019-04-04T23:16:22.022Z,21.57
2019-04-04T23:18:49.321Z,24.67
2019-04-04T23:21:16.570Z,21.30
2019-04-04T23:23:43.839Z,17.83
2019-04-04T23:26:11.343Z,18.63
2019-04-04T23:28:38.615Z,22.40
2019-04-04T23:31:05.868Z,23.53
2019-04-04T23:33:33.381Z,20.13
2019-04-04T23:36:00.650Z,21.63
2019-04-04T23:38:28.008Z,22.00
2019-04-04T23:40:55.259Z,23.27
2019-04-04T23:43:22.531Z,19.97
2019-04-04T23:45:49.781Z,19.40
2019-04-04T23:48:17.045Z,20.77
2019-04-04T23:50:44.294Z,23.73
2019-04-04T23:53:11.569Z,22.60
2019-04-04T23:55:38.818Z,24.83
2019-04-04T23:58:06.089Z,24.73
